King Philippos — 9HA3023 — position and weather

sailwx.info

Track history (hours):
 
Tides and Currents Weather Stations Pressure Air Temp Water Temp Dewpoint Dewpoint Depression Visibility Wind Speed Wind Dir Waves Ship Positions

King Philippos

Last reported at 2018-Apr-18 23:00 UTC. Time now 2018-Apr-21 04:03 UTC.
Position N 36°34' E 013°49'.

Length 250 m; draft 13.6 m.

Type: Tanker. MMSI: 229046000.

Date/timePositionNaut miles runAvg speedWind from/ knotsBaromVisibWave heightAir tempDewpointWater temp
2018-Apr-18 23:00N 36°34' E 013°49'913.6
2018-Apr-18 22:19N 36°31' E 014°00'310.5
2018-Apr-18 21:59N 36°30' E 014°04'912.8
2018-Apr-18 21:18N 36°26' E 014°14'412.1
2018-Apr-18 21:00N 36°25' E 014°19'713.8
2018-Apr-18 20:29N 36°22' E 014°27'611.8
2018-Apr-18 20:00N 36°21' E 014°33'612.3
2018-Apr-18 19:29N 36°18' E 014°41'  
2018-Apr-16 00:40N 32°10' E 030°51'213.1
2018-Apr-16 00:29N 32°10' E 030°53'613.1
2018-Apr-16 00:00N 32°07' E 030°60'713.4
2018-Apr-15 23:30N 32°04' E 031°07'713.5
2018-Apr-15 23:00N 32°02' E 031°15'713.5
2018-Apr-15 22:30N 31°60' E 031°22'1413.5
2018-Apr-15 21:26N 31°55' E 031°38'  
Track history (hours):
 
Tides and Currents Weather Stations Pressure Air Temp Water Temp Dewpoint Dewpoint Depression Visibility Wind Speed Wind Dir Waves Ship Positions

King Philippos

Last reported at 2018-Apr-18 23:00 UTC. Time now 2018-Apr-21 04:03 UTC.
Position N 36°34' E 013°49'.

Length 250 m; draft 13.6 m.

Type: Tanker. MMSI: 229046000.

Date/timePositionNaut miles runAvg speedWind from/ knotsBaromVisibWave heightAir tempDewpointWater temp
2018-Apr-18 23:00N 36°34' E 013°49'913.6
2018-Apr-18 22:19N 36°31' E 014°00'310.5
2018-Apr-18 21:59N 36°30' E 014°04'912.8
2018-Apr-18 21:18N 36°26' E 014°14'412.1
2018-Apr-18 21:00N 36°25' E 014°19'713.8
2018-Apr-18 20:29N 36°22' E 014°27'611.8
2018-Apr-18 20:00N 36°21' E 014°33'612.3
2018-Apr-18 19:29N 36°18' E 014°41'  
2018-Apr-16 00:40N 32°10' E 030°51'213.1
2018-Apr-16 00:29N 32°10' E 030°53'613.1
2018-Apr-16 00:00N 32°07' E 030°60'713.4
2018-Apr-15 23:30N 32°04' E 031°07'713.5
2018-Apr-15 23:00N 32°02' E 031°15'713.5
2018-Apr-15 22:30N 31°60' E 031°22'1413.5
2018-Apr-15 21:26N 31°55' E 031°38'  

Dump ship's entire track history